Time;durP1;ratioP1;P1;durP2;ratioP2;P2;SDS_P1;SDS_P2;PMS_P1;PMS_P2;Temp;Humidity;BMP_temperature;BMP_pressure;BME280_temperature;BME280_humidity;BME280_pressure;Samples;Min_cycle;Max_cycle;Signal;HPM_P1;HPM_P2
2023/04/08 00:02:23;;;;;;;;;;;9.20;99.90;;;;;;5007519;28;19918;-62
2023/04/08 00:04:48;;;;;;;;;;;9.20;99.90;;;;;;5008769;28;20012;-63
2023/04/08 00:07:14;;;;;;;;;;;9.20;99.90;;;;;;5005759;28;19952;-61
2023/04/08 00:09:40;;;;;;;;;;;9.20;99.90;;;;;;5008029;28;19914;-62
2023/04/08 00:12:05;;;;;;;;;;;9.20;99.90;;;;;;5003435;28;19940;-62
2023/04/08 00:14:31;;;;;;;;;;;9.10;99.90;;;;;;5004404;28;19960;-63
2023/04/08 00:16:56;;;;;;;;;;;9.10;99.90;;;;;;5004667;28;19932;-62
2023/04/08 00:19:21;;;;;;;;;;;9.10;99.90;;;;;;5006522;28;19917;-56
2023/04/08 00:21:47;;;;;;;;;;;9.10;99.90;;;;;;5006827;28;19917;-61
2023/04/08 00:24:12;;;;;;;;;;;9.10;99.90;;;;;;5004690;28;19913;-59
2023/04/08 00:26:38;;;;;;;;;;;9.00;99.90;;;;;;5004740;28;20323;-63
2023/04/08 00:29:03;;;;;;;;;;;9.00;99.90;;;;;;5005988;28;19913;-65
2023/04/08 00:31:29;;;;;;;;;;;9.00;99.90;;;;;;5005237;28;19913;-63
2023/04/08 00:33:54;;;;;;;;;;;9.10;99.90;;;;;;5008643;28;20427;-62
2023/04/08 00:36:20;;;;;;;;;;;9.10;99.90;;;;;;5004620;28;19920;-62
2023/04/08 00:38:45;;;;;;;;;;;9.10;99.90;;;;;;5008555;28;20010;-62
2023/04/08 00:41:11;;;;;;;;;;;9.10;99.90;;;;;;5007012;28;19921;-62
2023/04/08 00:43:37;;;;;;;;;;;9.10;99.90;;;;;;5008672;28;20334;-62
2023/04/08 00:46:02;;;;;;;;;;;9.10;99.90;;;;;;5005543;28;20005;-64
2023/04/08 00:48:28;;;;;;;;;;;9.10;99.90;;;;;;5008659;28;20395;-60
2023/04/08 00:50:54;;;;;;;;;;;9.10;99.90;;;;;;5004801;28;19914;-61
2023/04/08 00:53:19;;;;;;;;;;;9.10;99.90;;;;;;5006297;28;19918;-62
2023/04/08 00:55:45;;;;;;;;;;;9.10;99.90;;;;;;5005758;28;19922;-63
2023/04/08 00:58:11;;;;;;;;;;;9.10;99.90;;;;;;5002776;28;19922;-60
2023/04/08 01:00:41;;;;;;;;;;;9.20;99.90;;;;;;5005147;28;19913;-60
2023/04/08 01:03:36;;;;;;;;;;;9.20;99.90;;;;;;5007609;28;20012;-58
2023/04/08 01:06:08;;;;;;;;;;;9.20;99.90;;;;;;5008527;28;20017;-61
2023/04/08 01:08:36;;;;;;;;;;;9.20;99.90;;;;;;5009865;28;20016;-63
2023/04/08 01:11:02;;;;;;;;;;;9.10;99.90;;;;;;5009274;28;19914;-62
2023/04/08 01:13:29;;;;;;;;;;;9.10;99.90;;;;;;5006666;28;19920;-59
2023/04/08 01:15:55;;;;;;;;;;;9.10;99.90;;;;;;5009652;28;19917;-61
2023/04/08 01:18:21;;;;;;;;;;;9.10;99.90;;;;;;5005439;28;19928;-60
2023/04/08 01:20:48;;;;;;;;;;;9.10;99.90;;;;;;5008062;28;19925;-63
2023/04/08 01:23:36;;;;;;;;;;;9.10;99.90;;;;;;5008222;28;19914;-63
2023/04/08 01:26:01;;;;;;;;;;;9.10;99.90;;;;;;5007048;28;19968;-62
2023/04/08 01:28:28;;;;;;;;;;;9.10;99.90;;;;;;5004481;28;19922;-64
2023/04/08 01:30:55;;;;;;;;;;;9.10;99.90;;;;;;5008696;28;19917;-62
2023/04/08 01:33:21;;;;;;;;;;;9.10;99.90;;;;;;5008500;28;20360;-63
2023/04/08 01:35:47;;;;;;;;;;;9.10;99.90;;;;;;5009252;28;20008;-63
2023/04/08 01:38:17;;;;;;;;;;;9.10;99.90;;;;;;5006957;28;19913;-63
2023/04/08 01:40:43;;;;;;;;;;;9.10;99.90;;;;;;5002409;28;20012;-63
2023/04/08 01:43:09;;;;;;;;;;;9.10;99.90;;;;;;5006315;28;19953;-59
2023/04/08 01:45:35;;;;;;;;;;;9.10;99.90;;;;;;5006633;28;19928;-62
2023/04/08 01:48:01;;;;;;;;;;;9.10;99.90;;;;;;5007517;28;19918;-57
2023/04/08 01:50:27;;;;;;;;;;;9.10;99.90;;;;;;5003171;28;19913;-61
2023/04/08 01:52:53;;;;;;;;;;;9.00;99.90;;;;;;5008896;28;19913;-64
2023/04/08 01:55:19;;;;;;;;;;;9.00;99.90;;;;;;5006615;28;19914;-62
2023/04/08 01:57:47;;;;;;;;;;;9.00;99.90;;;;;;5011190;28;19952;-64
2023/04/08 02:00:14;;;;;;;;;;;9.10;99.90;;;;;;5004147;28;19914;-61
2023/04/08 02:02:41;;;;;;;;;;;9.10;99.90;;;;;;5007999;28;19948;-62
2023/04/08 02:05:07;;;;;;;;;;;9.10;99.90;;;;;;5007999;28;19972;-62
2023/04/08 02:07:32;;;;;;;;;;;9.10;99.90;;;;;;5006155;28;19949;-62
2023/04/08 02:09:58;;;;;;;;;;;9.10;99.90;;;;;;5005641;28;19951;-60
2023/04/08 02:12:25;;;;;;;;;;;9.10;99.90;;;;;;5006415;28;19917;-62
2023/04/08 02:14:50;;;;;;;;;;;9.20;99.90;;;;;;5007359;28;20007;-62
2023/04/08 02:17:16;;;;;;;;;;;9.10;99.90;;;;;;5005926;28;20008;-63
2023/04/08 02:19:58;;;;;;;;;;;9.10;99.90;;;;;;5006311;28;19921;-62
2023/04/08 02:22:35;;;;;;;;;;;9.10;99.90;;;;;;5005320;28;19917;-60
2023/04/08 02:25:03;;;;;;;;;;;9.10;99.90;;;;;;5007238;28;19924;-63
2023/04/08 02:27:29;;;;;;;;;;;9.10;99.90;;;;;;5009966;28;19914;-63
2023/04/08 02:29:55;;;;;;;;;;;9.10;99.90;;;;;;5009238;28;19921;-63
2023/04/08 02:32:22;;;;;;;;;;;9.00;99.90;;;;;;5007387;28;19913;-61
2023/04/08 02:34:48;;;;;;;;;;;9.00;99.90;;;;;;5006142;28;19928;-61
2023/04/08 02:37:13;;;;;;;;;;;9.00;99.90;;;;;;5008000;28;19913;-63
2023/04/08 02:39:39;;;;;;;;;;;9.10;99.90;;;;;;5004418;28;19945;-63
2023/04/08 02:42:05;;;;;;;;;;;9.10;99.90;;;;;;5005647;28;19917;-60
2023/04/08 02:44:30;;;;;;;;;;;9.10;99.90;;;;;;5008921;28;19929;-62
2023/04/08 02:46:55;;;;;;;;;;;9.00;99.90;;;;;;5008043;28;19921;-62
2023/04/08 02:49:21;;;;;;;;;;;9.00;99.90;;;;;;5007411;28;19917;-61
2023/04/08 02:51:46;;;;;;;;;;;9.00;99.90;;;;;;5008646;28;19921;-60
2023/04/08 02:54:12;;;;;;;;;;;9.10;99.90;;;;;;5008965;28;19921;-60
2023/04/08 02:56:37;;;;;;;;;;;9.00;99.90;;;;;;5005884;28;19921;-60
2023/04/08 02:59:03;;;;;;;;;;;9.10;99.90;;;;;;5010127;28;19914;-57
2023/04/08 03:01:29;;;;;;;;;;;9.00;99.90;;;;;;5006034;28;19921;-62
2023/04/08 03:03:55;;;;;;;;;;;9.00;99.90;;;;;;5006513;28;20386;-63
2023/04/08 03:06:20;;;;;;;;;;;8.90;99.90;;;;;;5009030;28;19917;-62
2023/04/08 03:08:45;;;;;;;;;;;9.00;99.90;;;;;;5008280;28;19913;-62
2023/04/08 03:11:11;;;;;;;;;;;9.00;99.90;;;;;;5003045;28;20020;-62
2023/04/08 03:13:36;;;;;;;;;;;9.00;99.90;;;;;;5006604;28;20449;-61
2023/04/08 03:16:02;;;;;;;;;;;9.00;99.90;;;;;;5010247;28;19921;-62
2023/04/08 03:18:27;;;;;;;;;;;9.00;99.90;;;;;;5004736;28;20292;-63
2023/04/08 03:20:53;;;;;;;;;;;9.00;99.90;;;;;;5008027;28;19940;-62
2023/04/08 03:23:18;;;;;;;;;;;9.00;99.90;;;;;;5010162;28;20398;-61
2023/04/08 03:25:44;;;;;;;;;;;9.00;99.90;;;;;;5003121;28;20411;-60
2023/04/08 03:28:09;;;;;;;;;;;8.90;99.90;;;;;;5006255;28;19914;-63
2023/04/08 03:30:35;;;;;;;;;;;8.80;99.90;;;;;;5003599;28;20356;-60
2023/04/08 03:33:02;;;;;;;;;;;8.90;99.90;;;;;;5006336;28;20882;-59
2023/04/08 03:35:27;;;;;;;;;;;8.80;99.90;;;;;;5007394;28;20031;-59
2023/04/08 03:37:54;;;;;;;;;;;8.70;99.90;;;;;;5009289;28;20434;-59
2023/04/08 03:40:19;;;;;;;;;;;8.80;99.90;;;;;;5005252;28;20012;-60
2023/04/08 03:42:45;;;;;;;;;;;8.70;99.90;;;;;;5005437;28;20008;-62
2023/04/08 03:45:11;;;;;;;;;;;8.70;99.90;;;;;;5002294;28;19972;-62
2023/04/08 03:47:36;;;;;;;;;;;8.70;99.90;;;;;;5005424;28;19921;-61
2023/04/08 03:50:02;;;;;;;;;;;8.80;99.90;;;;;;5005746;28;19918;-62
2023/04/08 03:52:27;;;;;;;;;;;8.80;99.90;;;;;;5007085;28;20377;-63
2023/04/08 03:54:53;;;;;;;;;;;8.80;99.90;;;;;;5003996;28;20372;-60
2023/04/08 03:57:18;;;;;;;;;;;8.70;99.90;;;;;;5003765;28;19936;-61
2023/04/08 03:59:44;;;;;;;;;;;8.70;99.90;;;;;;5008074;28;20067;-63
2023/04/08 04:02:09;;;;;;;;;;;8.70;99.90;;;;;;5004878;28;19913;-60
2023/04/08 04:04:35;;;;;;;;;;;8.80;99.90;;;;;;5006524;28;19968;-60
2023/04/08 04:07:01;;;;;;;;;;;8.80;99.90;;;;;;5006634;28;19929;-61
2023/04/08 04:09:26;;;;;;;;;;;8.80;99.90;;;;;;5007504;28;19914;-62
2023/04/08 04:11:52;;;;;;;;;;;8.80;99.90;;;;;;5004413;28;19921;-64
2023/04/08 04:14:17;;;;;;;;;;;8.80;99.90;;;;;;5005783;28;20439;-62
2023/04/08 04:16:43;;;;;;;;;;;8.80;99.90;;;;;;5001991;28;19922;-62
2023/04/08 04:19:08;;;;;;;;;;;8.80;99.90;;;;;;5007562;28;19913;-62
2023/04/08 04:21:34;;;;;;;;;;;8.90;99.90;;;;;;5006603;28;20626;-62
2023/04/08 04:23:59;;;;;;;;;;;8.90;99.90;;;;;;5006652;28;19917;-63
2023/04/08 04:26:24;;;;;;;;;;;8.80;99.90;;;;;;5004168;28;19925;-62
2023/04/08 04:28:50;;;;;;;;;;;8.80;99.90;;;;;;5006981;28;19913;-63
2023/04/08 04:31:25;;;;;;;;;;;8.90;99.90;;;;;;5005312;28;19952;-62
2023/04/08 04:33:50;;;;;;;;;;;8.90;99.90;;;;;;5005181;28;19913;-63
2023/04/08 04:36:16;;;;;;;;;;;8.90;99.90;;;;;;5007132;28;19929;-63
2023/04/08 04:38:44;;;;;;;;;;;8.90;99.90;;;;;;5006502;28;19925;-62
2023/04/08 04:41:09;;;;;;;;;;;8.90;99.90;;;;;;5008634;28;19941;-62
2023/04/08 04:43:35;;;;;;;;;;;8.90;99.90;;;;;;5010464;28;19972;-63
2023/04/08 04:46:02;;;;;;;;;;;9.00;99.90;;;;;;5008269;28;19996;-62
2023/04/08 04:48:28;;;;;;;;;;;9.00;99.90;;;;;;5008677;28;19918;-62
2023/04/08 04:50:55;;;;;;;;;;;8.90;99.90;;;;;;5012076;28;19914;-62
2023/04/08 04:53:20;;;;;;;;;;;8.90;99.90;;;;;;5010965;28;19914;-64
2023/04/08 04:55:46;;;;;;;;;;;8.80;99.90;;;;;;5008581;28;20575;-62
2023/04/08 04:58:11;;;;;;;;;;;8.90;99.90;;;;;;5011345;28;20326;-63
2023/04/08 05:00:37;;;;;;;;;;;8.90;99.90;;;;;;5009937;28;20441;-61
2023/04/08 05:03:02;;;;;;;;;;;8.90;99.90;;;;;;5005010;28;20175;-62
2023/04/08 05:05:27;;;;;;;;;;;8.90;99.90;;;;;;5008915;28;19965;-62
2023/04/08 05:07:53;;;;;;;;;;;8.90;99.90;;;;;;5010957;28;20391;-62
2023/04/08 05:10:18;;;;;;;;;;;8.90;99.90;;;;;;5008414;28;19913;-60
2023/04/08 05:12:44;;;;;;;;;;;8.90;99.90;;;;;;5012318;28;19960;-62
2023/04/08 05:15:09;;;;;;;;;;;8.90;99.90;;;;;;5011179;28;20380;-64
2023/04/08 05:17:35;;;;;;;;;;;8.90;99.90;;;;;;5006748;28;19984;-62
2023/04/08 05:20:01;;;;;;;;;;;9.00;99.90;;;;;;5009919;28;20392;-61
2023/04/08 05:22:26;;;;;;;;;;;9.00;99.90;;;;;;5009638;28;19933;-62
2023/04/08 05:24:51;;;;;;;;;;;9.00;99.90;;;;;;5008861;28;19924;-60
2023/04/08 05:27:17;;;;;;;;;;;9.00;99.90;;;;;;5010864;28;19917;-61
2023/04/08 05:29:42;;;;;;;;;;;8.90;99.90;;;;;;5010554;28;19913;-64
2023/04/08 05:32:08;;;;;;;;;;;8.90;99.90;;;;;;5006094;28;19919;-61
2023/04/08 05:34:33;;;;;;;;;;;8.90;99.90;;;;;;5011699;28;20020;-61
2023/04/08 05:36:59;;;;;;;;;;;8.90;99.90;;;;;;5011065;28;19959;-62
2023/04/08 05:39:24;;;;;;;;;;;8.90;99.90;;;;;;5008202;28;19921;-60
2023/04/08 05:41:50;;;;;;;;;;;9.00;99.90;;;;;;5010697;28;19921;-62
2023/04/08 05:44:15;;;;;;;;;;;9.00;99.90;;;;;;5012005;28;20437;-60
2023/04/08 05:46:41;;;;;;;;;;;9.00;99.90;;;;;;5008966;28;19918;-62
2023/04/08 05:49:06;;;;;;;;;;;9.00;99.90;;;;;;5011219;28;19913;-64
2023/04/08 05:51:32;;;;;;;;;;;8.90;99.90;;;;;;5012601;28;20000;-63
2023/04/08 05:53:57;;;;;;;;;;;9.00;99.90;;;;;;5014409;28;19948;-62
2023/04/08 05:56:23;;;;;;;;;;;9.00;99.90;;;;;;5010042;28;19914;-60
2023/04/08 05:58:49;;;;;;;;;;;8.90;99.90;;;;;;5011765;28;19914;-63
2023/04/08 06:01:14;;;;;;;;;;;8.90;99.90;;;;;;5009611;28;19920;-62
2023/04/08 06:03:40;;;;;;;;;;;9.00;99.90;;;;;;5009969;28;20016;-62
2023/04/08 06:06:10;;;;;;;;;;;9.00;99.90;;;;;;5009148;28;20932;-62
2023/04/08 06:08:36;;;;;;;;;;;9.00;99.90;;;;;;5007677;28;19921;-61
2023/04/08 06:11:04;;;;;;;;;;;9.00;99.90;;;;;;5007319;28;20624;-61
2023/04/08 06:13:29;;;;;;;;;;;8.90;99.90;;;;;;5011010;28;20004;-64
2023/04/08 06:15:55;;;;;;;;;;;8.90;99.90;;;;;;5006062;28;20001;-60
2023/04/08 06:18:20;;;;;;;;;;;8.90;99.90;;;;;;5010359;28;19917;-61
2023/04/08 06:20:46;;;;;;;;;;;9.00;99.90;;;;;;5004112;28;19917;-63
2023/04/08 06:23:11;;;;;;;;;;;9.00;99.90;;;;;;5010959;28;19949;-59
2023/04/08 06:25:37;;;;;;;;;;;9.00;99.90;;;;;;5009318;28;20387;-61
2023/04/08 06:28:02;;;;;;;;;;;9.00;99.90;;;;;;5009513;28;20008;-62
2023/04/08 06:30:28;;;;;;;;;;;9.00;99.90;;;;;;5007868;28;20375;-62
2023/04/08 06:32:53;;;;;;;;;;;9.00;99.90;;;;;;5008045;28;20004;-61
2023/04/08 06:35:19;;;;;;;;;;;8.90;99.90;;;;;;5008979;28;19921;-63
2023/04/08 06:37:44;;;;;;;;;;;8.90;99.90;;;;;;5008991;28;20387;-61
2023/04/08 06:40:10;;;;;;;;;;;9.00;99.90;;;;;;5009353;28;19921;-62
2023/04/08 06:42:37;;;;;;;;;;;9.00;99.90;;;;;;5003001;28;20287;-61
2023/04/08 06:45:06;;;;;;;;;;;9.00;99.90;;;;;;5000886;28;20416;-62
2023/04/08 06:47:31;;;;;;;;;;;9.00;99.90;;;;;;5001474;28;20380;-62
2023/04/08 06:49:58;;;;;;;;;;;9.00;99.90;;;;;;5006633;28;19931;-63
2023/04/08 06:52:24;;;;;;;;;;;9.00;99.90;;;;;;5010801;28;19968;-56
2023/04/08 06:54:49;;;;;;;;;;;9.00;99.90;;;;;;5006858;28;19955;-63
2023/04/08 06:57:15;;;;;;;;;;;9.00;99.90;;;;;;5011130;28;20454;-62
2023/04/08 06:59:40;;;;;;;;;;;9.00;99.90;;;;;;5007790;28;19920;-62
2023/04/08 07:02:06;;;;;;;;;;;8.90;99.90;;;;;;5010531;28;19924;-63
2023/04/08 07:04:31;;;;;;;;;;;8.90;99.90;;;;;;5009366;28;20473;-60
2023/04/08 07:06:57;;;;;;;;;;;9.00;99.90;;;;;;5010152;28;20295;-62
2023/04/08 07:09:22;;;;;;;;;;;9.10;99.90;;;;;;5010405;28;20007;-62
2023/04/08 07:11:48;;;;;;;;;;;9.10;99.90;;;;;;5004961;28;19937;-60
2023/04/08 07:14:13;;;;;;;;;;;9.10;99.90;;;;;;4999756;28;19935;-62
2023/04/08 07:16:38;;;;;;;;;;;9.10;99.90;;;;;;5005737;28;19956;-63
2023/04/08 07:19:04;;;;;;;;;;;9.10;99.90;;;;;;5009941;28;20011;-62
2023/04/08 07:21:30;;;;;;;;;;;9.20;99.90;;;;;;5007585;28;19917;-60
2023/04/08 07:23:56;;;;;;;;;;;9.30;99.90;;;;;;5005875;28;19926;-62
2023/04/08 07:26:21;;;;;;;;;;;9.30;99.90;;;;;;5008268;28;20271;-63
2023/04/08 07:28:47;;;;;;;;;;;9.30;99.90;;;;;;5003084;28;19944;-62
2023/04/08 07:31:15;;;;;;;;;;;9.30;99.90;;;;;;5001999;28;19924;-62
2023/04/08 07:33:41;;;;;;;;;;;9.30;99.90;;;;;;5005868;28;19967;-60
2023/04/08 07:36:10;;;;;;;;;;;9.30;99.90;;;;;;5004629;28;19945;-62
2023/04/08 07:38:36;;;;;;;;;;;9.40;99.90;;;;;;5007991;28;19921;-62
2023/04/08 07:41:02;;;;;;;;;;;9.60;99.90;;;;;;5005888;28;19975;-56
2023/04/08 07:43:27;;;;;;;;;;;9.60;99.90;;;;;;5005328;28;19913;-61
2023/04/08 07:45:52;;;;;;;;;;;9.60;99.90;;;;;;5006432;28;19924;-62
2023/04/08 07:48:18;;;;;;;;;;;9.70;99.90;;;;;;5006450;28;19920;-62
2023/04/08 07:50:44;;;;;;;;;;;9.70;99.90;;;;;;4999395;28;20013;-62
2023/04/08 07:53:10;;;;;;;;;;;9.80;99.90;;;;;;5004478;28;19920;-62
2023/04/08 07:55:36;;;;;;;;;;;9.80;99.90;;;;;;5008496;28;20396;-61
2023/04/08 07:58:01;;;;;;;;;;;9.80;99.90;;;;;;5002260;28;19927;-59
2023/04/08 08:00:29;;;;;;;;;;;9.90;99.90;;;;;;5004281;28;19921;-62
2023/04/08 08:02:55;;;;;;;;;;;10.00;99.90;;;;;;5010949;28;19914;-61
2023/04/08 08:05:20;;;;;;;;;;;10.10;99.90;;;;;;5006503;28;19917;-61
2023/04/08 08:07:45;;;;;;;;;;;10.20;99.90;;;;;;5003216;28;19928;-61
2023/04/08 08:10:11;;;;;;;;;;;10.20;99.90;;;;;;5002311;28;19925;-60
2023/04/08 08:12:36;;;;;;;;;;;10.20;99.90;;;;;;5002405;28;19953;-61
2023/04/08 08:15:02;;;;;;;;;;;10.20;99.90;;;;;;5003621;28;19913;-62
2023/04/08 08:17:29;;;;;;;;;;;10.20;99.90;;;;;;5002924;28;19913;-58
2023/04/08 08:19:55;;;;;;;;;;;10.20;99.90;;;;;;5006860;28;19940;-62
2023/04/08 08:22:21;;;;;;;;;;;10.30;99.90;;;;;;5010154;28;19917;-59
2023/04/08 08:24:46;;;;;;;;;;;10.20;99.90;;;;;;5007633;28;19917;-62
2023/04/08 08:27:12;;;;;;;;;;;10.20;99.90;;;;;;5013046;28;20439;-60
2023/04/08 08:29:37;;;;;;;;;;;10.30;99.90;;;;;;5011579;28;19914;-59
2023/04/08 08:32:03;;;;;;;;;;;10.40;99.90;;;;;;5007246;28;19964;-58
2023/04/08 08:34:29;;;;;;;;;;;10.40;99.90;;;;;;5009367;28;19913;-59
2023/04/08 08:36:54;;;;;;;;;;;10.40;99.90;;;;;;5006620;28;19913;-60
2023/04/08 08:39:20;;;;;;;;;;;10.40;99.90;;;;;;5005647;28;19913;-60
2023/04/08 08:41:46;;;;;;;;;;;10.50;99.90;;;;;;5008980;28;19914;-60
2023/04/08 08:44:11;;;;;;;;;;;10.60;99.90;;;;;;5011052;28;19924;-61
2023/04/08 08:46:42;;;;;;;;;;;10.70;99.90;;;;;;5010888;28;19921;-59
2023/04/08 08:49:07;;;;;;;;;;;10.70;99.90;;;;;;5009521;28;20299;-61
2023/04/08 08:51:33;;;;;;;;;;;10.70;99.90;;;;;;5009136;28;19913;-58
2023/04/08 08:54:01;;;;;;;;;;;10.70;99.90;;;;;;5009978;28;20056;-58
2023/04/08 08:56:26;;;;;;;;;;;10.70;99.90;;;;;;5005665;28;20423;-61
2023/04/08 08:58:52;;;;;;;;;;;10.70;99.90;;;;;;5007895;28;19918;-61
2023/04/08 09:01:33;;;;;;;;;;;10.60;99.90;;;;;;5008374;28;19913;-61
2023/04/08 09:04:09;;;;;;;;;;;10.60;99.90;;;;;;5010183;28;19913;-61
2023/04/08 09:06:35;;;;;;;;;;;10.60;99.90;;;;;;5011414;28;19922;-61
2023/04/08 09:09:01;;;;;;;;;;;10.70;99.90;;;;;;5011990;28;19914;-61
2023/04/08 09:11:27;;;;;;;;;;;10.90;99.90;;;;;;5008616;28;19913;-64
2023/04/08 09:13:52;;;;;;;;;;;10.90;99.90;;;;;;5007289;28;19921;-63
2023/04/08 09:16:18;;;;;;;;;;;11.00;99.90;;;;;;5002537;28;19925;-64
2023/04/08 09:18:45;;;;;;;;;;;10.90;99.90;;;;;;5007583;28;19991;-61
2023/04/08 09:21:11;;;;;;;;;;;10.80;99.90;;;;;;5000088;28;19932;-64
2023/04/08 09:23:42;;;;;;;;;;;10.90;99.90;;;;;;5008269;28;19913;-63
2023/04/08 09:26:09;;;;;;;;;;;11.00;99.90;;;;;;5007460;28;19968;-63
2023/04/08 09:28:35;;;;;;;;;;;11.00;99.90;;;;;;5005581;28;19924;-64
2023/04/08 09:31:01;;;;;;;;;;;11.00;99.90;;;;;;5007226;28;20347;-63
2023/04/08 09:33:30;;;;;;;;;;;11.00;99.90;;;;;;5009547;28;19917;-63
2023/04/08 09:35:56;;;;;;;;;;;11.00;99.90;;;;;;5003110;28;19929;-63
2023/04/08 09:38:21;;;;;;;;;;;11.00;99.90;;;;;;5007798;28;19924;-63
2023/04/08 09:40:47;;;;;;;;;;;11.10;99.90;;;;;;5007996;28;19933;-62
2023/04/08 09:43:14;;;;;;;;;;;11.10;99.90;;;;;;5003661;28;19969;-63
2023/04/08 09:45:41;;;;;;;;;;;11.10;99.90;;;;;;5010372;28;19980;-60
2023/04/08 09:48:12;;;;;;;;;;;11.10;99.90;;;;;;5010636;28;19924;-63
2023/04/08 09:50:42;;;;;;;;;;;11.10;99.90;;;;;;5004005;28;19960;-62
2023/04/08 09:53:28;;;;;;;;;;;11.20;99.90;;;;;;5009599;28;19998;-63
2023/04/08 09:55:55;;;;;;;;;;;11.20;99.90;;;;;;5005925;28;19921;-63
2023/04/08 09:58:26;;;;;;;;;;;11.30;99.90;;;;;;5004206;28;20384;-62
2023/04/08 10:00:53;;;;;;;;;;;11.30;99.90;;;;;;5010263;28;19940;-63
2023/04/08 10:03:36;;;;;;;;;;;11.40;99.90;;;;;;5011039;28;19914;-64
2023/04/08 10:06:02;;;;;;;;;;;11.40;99.90;;;;;;5005439;28;19921;-64
2023/04/08 10:08:29;;;;;;;;;;;11.40;99.90;;;;;;5008102;28;20349;-64
2023/04/08 10:10:55;;;;;;;;;;;11.50;99.90;;;;;;5004139;28;19917;-63
2023/04/08 10:13:21;;;;;;;;;;;11.40;99.90;;;;;;5008880;28;20355;-63
2023/04/08 10:15:47;;;;;;;;;;;11.50;99.90;;;;;;5007014;28;19921;-60
2023/04/08 10:18:13;;;;;;;;;;;11.60;99.90;;;;;;5010822;28;19913;-61
2023/04/08 10:20:39;;;;;;;;;;;11.50;99.90;;;;;;5005782;28;20430;-62
2023/04/08 10:23:06;;;;;;;;;;;11.40;99.90;;;;;;5003748;28;20383;-64
2023/04/08 10:25:32;;;;;;;;;;;11.40;99.90;;;;;;5007360;28;19913;-61
2023/04/08 10:27:58;;;;;;;;;;;11.40;99.90;;;;;;5006859;28;19918;-62
2023/04/08 10:30:37;;;;;;;;;;;11.60;99.90;;;;;;5003716;28;20012;-63
2023/04/08 10:33:08;;;;;;;;;;;11.70;99.90;;;;;;5009601;28;19980;-64
2023/04/08 10:35:35;;;;;;;;;;;11.70;99.90;;;;;;5004890;28;19936;-62
2023/04/08 10:38:01;;;;;;;;;;;11.70;99.90;;;;;;5009003;28;19983;-63
2023/04/08 10:40:27;;;;;;;;;;;11.80;99.90;;;;;;5007080;28;19921;-62
2023/04/08 10:42:55;;;;;;;;;;;11.90;99.90;;;;;;5009018;28;20004;-63
2023/04/08 10:45:21;;;;;;;;;;;11.90;99.90;;;;;;5006891;28;20403;-64
2023/04/08 10:47:47;;;;;;;;;;;12.00;99.90;;;;;;5008494;28;19959;-64
2023/04/08 10:50:13;;;;;;;;;;;11.90;99.90;;;;;;5006393;28;19955;-63
2023/04/08 10:52:48;;;;;;;;;;;11.70;99.90;;;;;;5009161;28;20387;-64
2023/04/08 10:55:13;;;;;;;;;;;11.70;99.90;;;;;;5007369;28;19913;-63
2023/04/08 10:57:42;;;;;;;;;;;11.70;99.90;;;;;;5008307;28;19920;-64
2023/04/08 11:00:10;;;;;;;;;;;11.70;99.90;;;;;;5008715;28;20399;-62
2023/04/08 11:02:39;;;;;;;;;;;11.70;99.90;;;;;;5008124;28;19923;-61
2023/04/08 11:05:05;;;;;;;;;;;11.90;99.90;;;;;;5006852;28;19921;-63
2023/04/08 11:07:30;;;;;;;;;;;12.10;99.90;;;;;;5011200;28;19920;-62
2023/04/08 11:09:56;;;;;;;;;;;12.10;99.90;;;;;;5006225;28;19920;-63
2023/04/08 11:12:21;;;;;;;;;;;12.20;99.90;;;;;;5008515;28;19914;-63
2023/04/08 11:14:51;;;;;;;;;;;12.00;99.90;;;;;;5009861;28;19909;-64
2023/04/08 11:17:17;;;;;;;;;;;12.10;99.90;;;;;;5007293;28;19917;-62
2023/04/08 11:19:43;;;;;;;;;;;12.10;99.90;;;;;;5002346;28;19917;-63
2023/04/08 11:22:09;;;;;;;;;;;11.90;99.90;;;;;;5009498;28;20272;-64
2023/04/08 11:24:36;;;;;;;;;;;12.00;99.90;;;;;;5008927;28;19918;-62
2023/04/08 11:27:03;;;;;;;;;;;12.00;99.90;;;;;;5001823;28;19933;-62
2023/04/08 11:29:29;;;;;;;;;;;12.00;99.90;;;;;;5005558;28;19920;-62
2023/04/08 11:31:55;;;;;;;;;;;12.20;99.90;;;;;;5001645;28;20004;-64
2023/04/08 11:34:24;;;;;;;;;;;12.20;99.90;;;;;;5007619;28;19914;-63
2023/04/08 11:36:50;;;;;;;;;;;12.20;99.90;;;;;;5005468;28;19913;-62
2023/04/08 11:39:15;;;;;;;;;;;12.20;99.90;;;;;;5007326;28;19921;-63
2023/04/08 11:41:41;;;;;;;;;;;12.00;99.90;;;;;;5006281;28;19920;-63
2023/04/08 11:44:07;;;;;;;;;;;11.90;99.90;;;;;;5003719;28;20343;-63
2023/04/08 11:46:33;;;;;;;;;;;11.90;99.90;;;;;;5003330;28;19917;-63
2023/04/08 11:49:01;;;;;;;;;;;12.00;99.90;;;;;;5004553;28;19917;-64
2023/04/08 11:51:27;;;;;;;;;;;12.10;99.90;;;;;;5005544;28;19913;-63
2023/04/08 11:53:53;;;;;;;;;;;12.20;99.90;;;;;;5002739;28;19921;-64
2023/04/08 11:56:20;;;;;;;;;;;12.10;99.90;;;;;;5006591;28;19914;-63
2023/04/08 11:58:46;;;;;;;;;;;12.20;99.90;;;;;;5004732;28;19913;-64
2023/04/08 12:01:12;;;;;;;;;;;12.20;99.90;;;;;;4999588;28;19914;-64
2023/04/08 12:03:37;;;;;;;;;;;12.30;99.90;;;;;;5001755;28;19922;-63
2023/04/08 12:06:04;;;;;;;;;;;12.40;99.90;;;;;;5002866;28;19925;-65
2023/04/08 12:08:29;;;;;;;;;;;12.30;99.90;;;;;;5005049;28;19914;-64
2023/04/08 12:10:56;;;;;;;;;;;12.30;99.90;;;;;;5003887;28;19921;-64
2023/04/08 12:13:21;;;;;;;;;;;12.20;99.90;;;;;;5006847;28;19913;-63
2023/04/08 12:15:46;;;;;;;;;;;12.20;99.90;;;;;;5005809;28;19920;-63
2023/04/08 12:18:12;;;;;;;;;;;12.10;99.90;;;;;;5001168;28;19917;-61
2023/04/08 12:20:37;;;;;;;;;;;11.80;99.90;;;;;;5002586;28;19914;-62
2023/04/08 12:23:03;;;;;;;;;;;11.80;99.90;;;;;;5004698;28;19914;-62
2023/04/08 12:25:30;;;;;;;;;;;11.70;99.90;;;;;;5002069;28;20402;-62
2023/04/08 12:27:55;;;;;;;;;;;11.60;99.90;;;;;;5001419;28;19922;-62
2023/04/08 12:30:21;;;;;;;;;;;11.60;99.90;;;;;;5005810;28;19913;-62
2023/04/08 12:32:46;;;;;;;;;;;11.70;99.90;;;;;;5004737;28;19921;-62
2023/04/08 12:35:12;;;;;;;;;;;11.80;99.90;;;;;;5000614;28;19920;-63
2023/04/08 12:37:37;;;;;;;;;;;11.80;99.90;;;;;;5005680;28;19921;-63
2023/04/08 12:40:03;;;;;;;;;;;11.80;99.90;;;;;;5004770;28;19920;-63
2023/04/08 12:42:28;;;;;;;;;;;11.80;99.90;;;;;;5004751;28;20471;-61
2023/04/08 12:44:54;;;;;;;;;;;11.70;99.90;;;;;;5005003;28;19957;-62
2023/04/08 12:47:19;;;;;;;;;;;11.60;99.90;;;;;;5004929;28;20624;-62
2023/04/08 12:49:45;;;;;;;;;;;11.60;99.90;;;;;;5002268;28;20311;-61
2023/04/08 12:52:10;;;;;;;;;;;11.60;99.90;;;;;;4998197;28;20021;-61
2023/04/08 12:54:36;;;;;;;;;;;11.60;99.90;;;;;;5001727;28;19953;-62
2023/04/08 12:57:01;;;;;;;;;;;11.70;99.90;;;;;;5001644;28;19967;-63
2023/04/08 12:59:27;;;;;;;;;;;11.90;99.90;;;;;;5006167;28;19921;-62
2023/04/08 13:01:52;;;;;;;;;;;11.90;99.90;;;;;;5011059;28;19936;-63
2023/04/08 13:04:18;;;;;;;;;;;11.90;99.90;;;;;;5012992;28;20044;-63
2023/04/08 13:06:44;;;;;;;;;;;12.10;99.90;;;;;;5008873;28;19963;-63
2023/04/08 13:09:10;;;;;;;;;;;12.10;99.90;;;;;;5007822;28;20363;-62
2023/04/08 13:11:35;;;;;;;;;;;12.00;99.90;;;;;;5006288;28;20135;-63
2023/04/08 13:14:01;;;;;;;;;;;12.10;99.90;;;;;;5004015;28;19921;-63
2023/04/08 13:16:26;;;;;;;;;;;12.20;99.90;;;;;;5006093;28;19959;-63
2023/04/08 13:18:52;;;;;;;;;;;12.30;99.90;;;;;;5004289;28;19988;-63
2023/04/08 13:21:17;;;;;;;;;;;12.30;99.90;;;;;;5006124;28;19917;-64
2023/04/08 13:23:43;;;;;;;;;;;12.40;99.90;;;;;;5006832;28;19922;-62
2023/04/08 13:26:08;;;;;;;;;;;12.30;99.90;;;;;;5004135;28;19917;-63
2023/04/08 13:28:34;;;;;;;;;;;12.50;99.90;;;;;;5009913;28;20415;-63
2023/04/08 13:30:59;;;;;;;;;;;12.60;99.90;;;;;;5009133;28;21683;-63
2023/04/08 13:33:25;;;;;;;;;;;12.60;99.90;;;;;;5010065;28;19921;-62
2023/04/08 13:35:50;;;;;;;;;;;12.50;99.90;;;;;;5005308;28;20008;-61
2023/04/08 13:38:16;;;;;;;;;;;12.60;99.90;;;;;;5007874;28;19924;-59
2023/04/08 13:40:42;;;;;;;;;;;12.50;99.90;;;;;;5003212;28;21652;-59
2023/04/08 13:43:08;;;;;;;;;;;12.70;99.90;;;;;;5003132;28;19917;-63
2023/04/08 13:45:34;;;;;;;;;;;12.90;99.90;;;;;;5009785;28;19927;-60
2023/04/08 13:47:59;;;;;;;;;;;13.00;99.90;;;;;;5009059;28;19941;-62
2023/04/08 13:50:25;;;;;;;;;;;13.00;99.90;;;;;;5007186;28;20020;-60
2023/04/08 13:52:51;;;;;;;;;;;12.90;99.90;;;;;;5006063;28;19921;-61
2023/04/08 13:55:16;;;;;;;;;;;12.70;99.90;;;;;;5003125;28;19925;-60
2023/04/08 13:57:42;;;;;;;;;;;12.50;99.90;;;;;;5007391;28;20419;-61
2023/04/08 14:00:08;;;;;;;;;;;12.50;99.90;;;;;;5004087;28;20012;-63
2023/04/08 14:02:33;;;;;;;;;;;12.40;99.90;;;;;;5002658;28;20045;-60
2023/04/08 14:04:59;;;;;;;;;;;12.50;99.90;;;;;;4999432;28;19921;-62
2023/04/08 14:07:24;;;;;;;;;;;12.50;99.90;;;;;;5000346;28;19914;-62
2023/04/08 14:09:50;;;;;;;;;;;12.50;99.90;;;;;;5003967;28;19975;-62
2023/04/08 14:12:15;;;;;;;;;;;12.50;99.90;;;;;;5006170;28;19921;-60
2023/04/08 14:14:41;;;;;;;;;;;12.50;99.90;;;;;;5008791;28;19910;-62
2023/04/08 14:17:06;;;;;;;;;;;12.60;99.90;;;;;;5008649;28;20379;-60
2023/04/08 14:19:32;;;;;;;;;;;12.60;99.90;;;;;;5003302;28;20276;-63